Fernhurst, United Kingdom
Current Conditions -  °F | °C
As of 10:50 AM on Saturday 25 Oct 2014 (Local Time) from EGLF Reporting Station
Broken Clouds Broken Clouds  
Wind Chill: 13°   Ceiling: 4500
Heat Index: 13°   Visibility: 6mi
Dew Point:   Wind: 13mph
Humidity: 67%   Direction: 230°SW
Pressure: 30.09"   Gusts: NA
Location:  51.05°N, 0.72°W
Report Text: EGLF 250950Z 23011KT 9999 BKN045 13/07 Q1019
Loading
Personal Weather Stations






























Interactive Weather Map
Tropical Storm Tracking
New forecast layout! Learn more

10-Day Weather Forecast

Advertisements
Track Severe Weather on mobile